createdAt,value
2023-09-30T00:07:50.667Z,17
2023-09-30T00:09:31.184Z,17
2023-09-30T00:11:11.890Z,17.1
2023-09-30T00:12:52.395Z,17
2023-09-30T00:14:32.902Z,17.1
2023-09-30T00:16:13.375Z,17
2023-09-30T00:17:53.970Z,17
2023-09-30T00:19:34.577Z,17
2023-09-30T00:21:15.109Z,17.1
2023-09-30T00:22:55.723Z,17
2023-09-30T00:24:36.301Z,17
2023-09-30T00:26:16.864Z,17
2023-09-30T00:27:57.380Z,17.1
2023-09-30T00:29:37.830Z,17
2023-09-30T00:31:18.349Z,17.1
2023-09-30T00:32:58.881Z,17
2023-09-30T00:34:39.501Z,17.1
2023-09-30T00:36:19.999Z,17
2023-09-30T00:38:00.849Z,17
2023-09-30T00:39:41.366Z,17
2023-09-30T00:43:19.289Z,17.1
2023-09-30T00:44:59.787Z,17
2023-09-30T00:46:40.316Z,17
2023-09-30T00:48:21.116Z,17.1
2023-09-30T00:50:01.859Z,17.1
2023-09-30T00:51:42.402Z,17
2023-09-30T00:53:24.996Z,17
2023-09-30T00:55:05.653Z,17
2023-09-30T00:56:46.113Z,17.1
2023-09-30T00:58:26.587Z,17.1
2023-09-30T01:00:07.171Z,17
2023-09-30T01:01:47.796Z,17
2023-09-30T01:03:28.628Z,17.1
2023-09-30T01:05:09.426Z,17.1
2023-09-30T01:06:49.975Z,17.1
2023-09-30T01:08:30.434Z,17
2023-09-30T01:10:10.915Z,17.1
2023-09-30T01:11:51.438Z,17.1
2023-09-30T01:13:31.898Z,17.1
2023-09-30T01:15:12.372Z,17
2023-09-30T01:16:52.907Z,17
2023-09-30T01:18:33.408Z,17
2023-09-30T01:20:13.920Z,17.1
2023-09-30T01:21:54.385Z,17
2023-09-30T01:23:34.848Z,17
2023-09-30T01:25:15.422Z,17.1
2023-09-30T01:26:55.874Z,17
2023-09-30T01:28:36.302Z,17
2023-09-30T01:30:16.773Z,17.1
2023-09-30T01:31:57.494Z,17
2023-09-30T01:33:38.018Z,17.1
2023-09-30T01:35:18.649Z,17.1
2023-09-30T01:36:59.107Z,17.1
2023-09-30T01:38:39.567Z,17.1
2023-09-30T01:40:20.193Z,17.1
2023-09-30T01:42:00.689Z,17
2023-09-30T01:43:41.124Z,17
2023-09-30T01:45:21.634Z,17.1
2023-09-30T01:47:02.237Z,17.1
2023-09-30T01:48:42.801Z,17
2023-09-30T01:50:23.378Z,17.1
2023-09-30T01:52:03.812Z,17.1
2023-09-30T01:53:44.280Z,17
2023-09-30T01:55:25.061Z,17.1
2023-09-30T01:57:05.498Z,17
2023-09-30T01:58:46.157Z,17.1
2023-09-30T02:00:26.613Z,17
2023-09-30T02:03:17.632Z,17.1
2023-09-30T02:04:58.382Z,17
2023-09-30T02:06:38.840Z,17
2023-09-30T02:08:19.412Z,17.1
2023-09-30T02:09:59.958Z,17
2023-09-30T02:11:40.444Z,17
2023-09-30T02:13:20.967Z,17
2023-09-30T02:15:01.430Z,17
2023-09-30T02:16:41.971Z,17.1
2023-09-30T02:18:22.685Z,17
2023-09-30T02:20:03.193Z,17
2023-09-30T02:21:43.729Z,17
2023-09-30T02:23:24.205Z,17
2023-09-30T02:25:04.665Z,17
2023-09-30T02:26:45.154Z,17
2023-09-30T02:28:25.676Z,17
2023-09-30T02:30:06.129Z,17.1
2023-09-30T02:31:46.630Z,17
2023-09-30T02:33:27.353Z,17
2023-09-30T02:35:08.011Z,17.1
2023-09-30T02:36:48.542Z,17
2023-09-30T02:38:29.019Z,17
2023-09-30T02:40:09.474Z,17.1
2023-09-30T02:41:50.787Z,17.1
2023-09-30T02:43:31.210Z,17
2023-09-30T02:45:11.808Z,17
2023-09-30T02:46:52.415Z,17.1
2023-09-30T02:48:32.925Z,17
2023-09-30T02:50:13.573Z,17.1
2023-09-30T02:51:54.011Z,17
2023-09-30T02:53:34.459Z,17
2023-09-30T02:55:14.923Z,17
2023-09-30T02:56:55.406Z,17
2023-09-30T02:58:35.827Z,17
2023-09-30T03:00:16.345Z,17
2023-09-30T03:01:57.069Z,17
2023-09-30T03:03:37.718Z,17
2023-09-30T03:05:18.373Z,17.1
2023-09-30T03:06:58.819Z,17
2023-09-30T03:08:39.378Z,17
2023-09-30T03:10:19.846Z,17
2023-09-30T03:12:00.319Z,17
2023-09-30T03:13:40.760Z,17
2023-09-30T03:15:21.216Z,17
2023-09-30T03:17:01.672Z,17
2023-09-30T03:18:42.257Z,17
2023-09-30T03:20:22.845Z,17
2023-09-30T03:22:03.321Z,17
2023-09-30T03:23:43.778Z,17
2023-09-30T03:25:24.224Z,17
2023-09-30T03:27:04.708Z,17
2023-09-30T03:28:45.144Z,17
2023-09-30T03:30:25.654Z,17
2023-09-30T03:32:06.205Z,17
2023-09-30T03:33:46.769Z,17
2023-09-30T03:35:27.587Z,17
2023-09-30T03:37:08.214Z,17
2023-09-30T03:38:48.921Z,17
2023-09-30T03:40:30.387Z,17
2023-09-30T03:42:11.005Z,17
2023-09-30T03:43:51.503Z,17
2023-09-30T03:45:32.573Z,17
2023-09-30T03:47:13.145Z,17
2023-09-30T03:48:53.628Z,17
2023-09-30T03:50:34.139Z,17
2023-09-30T03:52:16.065Z,17
2023-09-30T03:54:13.604Z,17
2023-09-30T03:55:54.176Z,17
2023-09-30T03:57:34.677Z,17
2023-09-30T03:59:15.300Z,17
2023-09-30T04:00:55.942Z,17
2023-09-30T04:02:36.623Z,17
2023-09-30T04:04:17.294Z,17
2023-09-30T04:05:58.028Z,17
2023-09-30T04:07:38.491Z,17
2023-09-30T04:09:19.135Z,17
2023-09-30T04:10:59.596Z,17
2023-09-30T04:12:40.703Z,17
2023-09-30T04:14:21.422Z,17
2023-09-30T04:16:02.047Z,17
2023-09-30T04:17:42.604Z,17
2023-09-30T04:19:23.200Z,17
2023-09-30T04:21:03.664Z,17
2023-09-30T04:22:44.108Z,17
2023-09-30T04:24:24.601Z,17
2023-09-30T04:26:05.231Z,17
2023-09-30T04:27:45.911Z,17
2023-09-30T04:29:26.474Z,17
2023-09-30T04:31:07.083Z,17
2023-09-30T04:32:48.007Z,17
2023-09-30T04:34:28.565Z,17
2023-09-30T04:36:09.083Z,17
2023-09-30T04:37:49.642Z,17
2023-09-30T04:39:30.154Z,17
2023-09-30T04:41:10.769Z,17
2023-09-30T04:42:51.375Z,17
2023-09-30T04:44:31.884Z,17
2023-09-30T04:46:12.351Z,17
2023-09-30T04:47:53.127Z,17
2023-09-30T04:49:33.766Z,17
2023-09-30T04:51:14.214Z,17
2023-09-30T04:52:54.947Z,17
2023-09-30T04:54:35.478Z,17
2023-09-30T04:56:16.190Z,17
2023-09-30T04:57:56.686Z,17
2023-09-30T04:59:37.113Z,17
2023-09-30T05:01:17.606Z,17
2023-09-30T05:02:58.283Z,17
2023-09-30T05:04:39.354Z,17
2023-09-30T05:06:19.971Z,17
2023-09-30T05:08:00.721Z,17
2023-09-30T05:09:41.226Z,17
2023-09-30T05:11:21.933Z,16.9
2023-09-30T05:13:02.421Z,17
2023-09-30T05:14:42.944Z,17
2023-09-30T05:16:23.492Z,17
2023-09-30T05:18:04.181Z,17
2023-09-30T05:19:44.825Z,16.9
2023-09-30T05:21:25.329Z,17
2023-09-30T05:23:06.254Z,17
2023-09-30T05:24:46.841Z,17
2023-09-30T05:26:27.586Z,17
2023-09-30T05:28:08.209Z,17
2023-09-30T05:29:48.697Z,17
2023-09-30T05:31:31.101Z,17
2023-09-30T05:33:11.957Z,17
2023-09-30T05:34:52.610Z,17
2023-09-30T05:36:33.078Z,17
2023-09-30T05:38:13.749Z,17
2023-09-30T05:39:54.428Z,17
2023-09-30T05:43:32.549Z,17
2023-09-30T05:45:13.090Z,17
2023-09-30T05:46:53.631Z,17
2023-09-30T05:48:34.369Z,17
2023-09-30T05:50:14.989Z,17
2023-09-30T05:51:55.559Z,17
2023-09-30T05:53:36.074Z,17
2023-09-30T05:55:16.646Z,17
2023-09-30T05:56:57.074Z,17
2023-09-30T05:58:37.569Z,17.1
2023-09-30T06:00:18.002Z,16.2
2023-09-30T06:01:58.597Z,15.9
2023-09-30T06:03:39.198Z,15.8
2023-09-30T06:05:20.168Z,15.8
2023-09-30T06:07:00.626Z,15.8
2023-09-30T06:08:41.102Z,15.9
2023-09-30T06:10:21.548Z,15.9
2023-09-30T06:12:02.094Z,15.9
2023-09-30T06:13:42.686Z,15.9
2023-09-30T06:15:23.500Z,15.8
2023-09-30T06:17:04.093Z,15.8
2023-09-30T06:18:44.579Z,15.8
2023-09-30T06:20:25.103Z,15.8
2023-09-30T06:22:06.789Z,15.9
2023-09-30T06:23:47.442Z,16
2023-09-30T06:25:28.028Z,15.9
2023-09-30T06:27:08.588Z,15.9
2023-09-30T06:28:49.149Z,16
2023-09-30T06:30:29.783Z,16
2023-09-30T06:32:11.686Z,16
2023-09-30T06:33:52.116Z,16
2023-09-30T06:35:32.777Z,15.9
2023-09-30T06:37:13.438Z,15.9
2023-09-30T06:38:54.095Z,16
2023-09-30T06:40:36.812Z,16.1
2023-09-30T06:42:20.694Z,16.3
2023-09-30T06:44:01.227Z,16.4
2023-09-30T06:45:41.697Z,16.4
2023-09-30T06:47:23.355Z,16.5
2023-09-30T06:49:03.902Z,16.5
2023-09-30T06:50:44.485Z,16.6
2023-09-30T06:52:25.009Z,16.6
2023-09-30T06:54:05.585Z,16.6
2023-09-30T06:55:46.042Z,16.6
2023-09-30T06:57:26.600Z,16.6
2023-09-30T06:59:07.269Z,16.6
2023-09-30T07:00:47.747Z,16.7
2023-09-30T07:02:28.422Z,16.7
2023-09-30T07:04:09.112Z,16.7
2023-09-30T07:05:49.802Z,16.7
2023-09-30T07:07:30.244Z,16.7
2023-09-30T07:09:10.719Z,16.7
2023-09-30T07:10:51.153Z,16.8
2023-09-30T07:12:31.640Z,16.7
2023-09-30T07:14:12.527Z,16.8
2023-09-30T07:15:53.078Z,16.8
2023-09-30T07:17:34.021Z,16.8
2023-09-30T07:19:15.037Z,16.8
2023-09-30T07:20:55.541Z,16.8
2023-09-30T07:22:46.596Z,16.8
2023-09-30T07:24:57.969Z,16.8
2023-09-30T07:26:38.673Z,16.8
2023-09-30T07:28:19.150Z,16.8
2023-09-30T07:29:59.714Z,16.8
2023-09-30T07:31:57.871Z,16.8
2023-09-30T07:33:38.658Z,16.8
2023-09-30T07:35:19.284Z,16.8
2023-09-30T07:36:59.850Z,16.8
2023-09-30T07:38:40.426Z,16.8
2023-09-30T07:40:20.960Z,16.9
2023-09-30T07:42:01.521Z,16.8
2023-09-30T07:43:42.077Z,16.8
2023-09-30T07:45:22.701Z,16.9
2023-09-30T07:47:03.501Z,16.9
2023-09-30T07:48:43.994Z,16.8
2023-09-30T07:50:24.617Z,16.9
2023-09-30T07:52:05.096Z,16.9
2023-09-30T07:53:45.623Z,16.9
2023-09-30T07:55:26.095Z,16.9
2023-09-30T07:57:06.652Z,16.9
2023-09-30T07:58:47.104Z,16.9
2023-09-30T08:00:27.608Z,16.9
2023-09-30T08:03:21.052Z,16.9
2023-09-30T08:05:01.783Z,16.9
2023-09-30T08:06:42.302Z,16.9
2023-09-30T08:08:22.799Z,16.9
2023-09-30T08:10:03.257Z,16.9
2023-09-30T08:11:43.930Z,16.9
2023-09-30T08:13:24.371Z,16.9
2023-09-30T08:15:05.166Z,16.9
2023-09-30T08:16:45.957Z,16.9
2023-09-30T08:18:26.464Z,16.9
2023-09-30T08:20:07.063Z,16.9
2023-09-30T08:21:47.821Z,16.9
2023-09-30T08:23:28.435Z,16.9
2023-09-30T08:25:08.933Z,16.9
2023-09-30T08:26:49.458Z,16.9
2023-09-30T08:28:29.917Z,16.9
2023-09-30T08:30:10.387Z,16.9
2023-09-30T08:31:51.360Z,16.9
2023-09-30T08:33:32.057Z,16.9
2023-09-30T08:35:12.775Z,16.9
2023-09-30T08:36:53.275Z,16.9
2023-09-30T08:38:33.774Z,16.9
2023-09-30T08:40:14.237Z,16.9
2023-09-30T08:41:54.687Z,17
2023-09-30T08:43:35.145Z,16.9
2023-09-30T08:45:19.581Z,16.9
2023-09-30T08:47:00.204Z,16.9
2023-09-30T08:48:40.767Z,16.9
2023-09-30T08:50:21.468Z,16.9
2023-09-30T08:52:01.938Z,16.9
2023-09-30T08:53:42.517Z,16.9
2023-09-30T08:55:23.481Z,16.9
2023-09-30T08:57:03.905Z,16.9
2023-09-30T08:58:44.390Z,16.9
2023-09-30T09:00:24.939Z,16.9
2023-09-30T09:02:05.717Z,17
2023-09-30T09:03:46.175Z,16.9
2023-09-30T09:05:27.132Z,17
2023-09-30T09:07:07.699Z,16.9
2023-09-30T09:08:48.126Z,17
2023-09-30T09:10:28.684Z,16.9
2023-09-30T09:12:09.144Z,16.9
2023-09-30T09:13:49.592Z,17
2023-09-30T09:15:30.128Z,16.9
2023-09-30T09:17:11.017Z,17
2023-09-30T09:18:51.716Z,16.9
2023-09-30T09:20:32.230Z,16.9
2023-09-30T09:22:12.691Z,16.9
2023-09-30T09:23:53.212Z,17
2023-09-30T09:25:33.695Z,17
2023-09-30T09:27:14.151Z,16.9
2023-09-30T09:28:54.598Z,17
2023-09-30T09:30:35.576Z,17
2023-09-30T09:32:16.263Z,16.9
2023-09-30T09:33:56.784Z,16.9
2023-09-30T09:35:37.484Z,16.9
2023-09-30T09:37:17.917Z,16.9
2023-09-30T09:38:58.478Z,17
2023-09-30T09:40:39.347Z,16.9
2023-09-30T09:42:20.412Z,16.9
2023-09-30T09:44:00.959Z,16.9
2023-09-30T09:45:41.443Z,16.9
2023-09-30T09:47:22.398Z,16.9
2023-09-30T09:49:02.974Z,17
2023-09-30T09:50:43.632Z,16.9
2023-09-30T09:54:21.657Z,16.9
2023-09-30T09:56:02.297Z,16.9
2023-09-30T09:57:42.751Z,17
2023-09-30T09:59:23.421Z,17
2023-09-30T10:01:03.962Z,17
2023-09-30T10:02:44.900Z,17
2023-09-30T10:04:26.010Z,17
2023-09-30T10:06:06.541Z,17
2023-09-30T10:07:46.990Z,17
2023-09-30T10:09:27.474Z,17
2023-09-30T10:11:08.207Z,17
2023-09-30T10:12:48.700Z,17
2023-09-30T10:14:29.347Z,17
2023-09-30T10:16:09.880Z,17
2023-09-30T10:17:51.349Z,17
2023-09-30T10:19:31.901Z,17
2023-09-30T10:21:12.426Z,17
2023-09-30T10:22:53.061Z,17
2023-09-30T10:24:33.604Z,17
2023-09-30T10:26:14.361Z,17
2023-09-30T10:27:55.103Z,17
2023-09-30T10:29:35.784Z,17
2023-09-30T10:31:16.304Z,17
2023-09-30T10:32:57.517Z,17
2023-09-30T10:34:38.591Z,17
2023-09-30T10:36:19.049Z,17
2023-09-30T10:37:59.713Z,17
2023-09-30T10:39:40.318Z,17
2023-09-30T10:41:20.828Z,17
2023-09-30T10:43:01.300Z,17
2023-09-30T10:44:42.047Z,16.9
2023-09-30T10:46:22.529Z,17
2023-09-30T10:48:03.232Z,16.9
2023-09-30T10:49:43.725Z,17
2023-09-30T10:51:24.230Z,16.9
2023-09-30T10:53:06.490Z,17
2023-09-30T10:54:47.053Z,17
2023-09-30T10:56:27.694Z,16.9
2023-09-30T10:58:08.141Z,17
2023-09-30T10:59:48.613Z,16.9
2023-09-30T11:01:29.141Z,16.9
2023-09-30T11:03:10.189Z,17
2023-09-30T11:04:51.385Z,17
2023-09-30T11:06:32.510Z,17
2023-09-30T11:08:13.334Z,17
2023-09-30T11:09:53.836Z,17
2023-09-30T11:11:34.352Z,17
2023-09-30T11:13:15.028Z,17
2023-09-30T11:14:55.484Z,17
2023-09-30T11:16:35.936Z,17
2023-09-30T11:18:16.641Z,17
2023-09-30T11:19:57.157Z,16.9
2023-09-30T11:21:37.605Z,17
2023-09-30T11:23:18.151Z,17
2023-09-30T11:24:58.630Z,17
2023-09-30T11:26:40.189Z,17
2023-09-30T11:28:20.758Z,16.9
2023-09-30T11:30:01.226Z,17
2023-09-30T11:31:41.861Z,17
2023-09-30T11:33:23.053Z,17
2023-09-30T11:35:03.598Z,17
2023-09-30T11:36:44.086Z,17
2023-09-30T11:38:24.647Z,17
2023-09-30T11:40:05.370Z,16.9
2023-09-30T11:43:43.487Z,16.9
2023-09-30T11:45:24.301Z,17
2023-09-30T11:47:05.142Z,17
2023-09-30T11:48:45.923Z,17
2023-09-30T11:50:26.640Z,17
2023-09-30T11:52:07.117Z,17
2023-09-30T11:53:47.755Z,17
2023-09-30T11:55:28.198Z,17
2023-09-30T11:57:08.672Z,16.9
2023-09-30T11:58:49.120Z,17
2023-09-30T12:00:29.622Z,17
2023-09-30T12:02:14.703Z,17
2023-09-30T12:03:58.356Z,17
2023-09-30T12:05:39.369Z,17
2023-09-30T12:07:19.902Z,17
2023-09-30T12:09:00.541Z,17
2023-09-30T12:10:41.129Z,17
2023-09-30T12:12:21.569Z,17
2023-09-30T12:14:02.245Z,17
2023-09-30T12:15:42.710Z,17
2023-09-30T12:17:23.248Z,17
2023-09-30T12:19:03.857Z,17
2023-09-30T12:20:44.461Z,17
2023-09-30T12:22:25.038Z,17
2023-09-30T12:24:05.485Z,17
2023-09-30T12:25:47.273Z,17
2023-09-30T12:27:51.970Z,17
2023-09-30T12:29:32.453Z,17
2023-09-30T12:31:12.955Z,17
2023-09-30T12:32:53.926Z,17
2023-09-30T12:34:34.674Z,17
2023-09-30T12:36:15.398Z,17
2023-09-30T12:37:55.868Z,17
2023-09-30T12:39:36.345Z,17
2023-09-30T12:41:16.886Z,17
2023-09-30T12:42:57.472Z,17
2023-09-30T12:44:37.983Z,17
2023-09-30T12:46:18.648Z,17
2023-09-30T12:47:59.464Z,17
2023-09-30T12:49:40.086Z,17
2023-09-30T12:51:20.636Z,17
2023-09-30T12:53:01.082Z,17
2023-09-30T12:54:41.545Z,17
2023-09-30T12:56:22.224Z,17
2023-09-30T12:58:02.784Z,17
2023-09-30T12:59:43.313Z,17
2023-09-30T13:01:23.860Z,17
2023-09-30T13:03:04.699Z,17
2023-09-30T13:04:45.453Z,17
2023-09-30T13:06:26.008Z,17
2023-09-30T13:08:06.528Z,17
2023-09-30T13:09:47.020Z,17
2023-09-30T13:11:27.528Z,17
2023-09-30T13:13:08.187Z,17
2023-09-30T13:14:48.666Z,17
2023-09-30T13:16:29.278Z,17
2023-09-30T13:18:09.966Z,17
2023-09-30T13:19:50.559Z,17
2023-09-30T13:21:31.093Z,17
2023-09-30T13:23:11.740Z,17
2023-09-30T13:24:52.351Z,17
2023-09-30T13:26:32.853Z,17
2023-09-30T13:28:13.319Z,17
2023-09-30T13:29:53.809Z,17
2023-09-30T13:31:34.713Z,17
2023-09-30T13:31:52.495Z,17
2023-09-30T13:33:33.773Z,17
2023-09-30T13:35:15.346Z,17
2023-09-30T13:36:56.071Z,17
2023-09-30T13:38:36.949Z,17
2023-09-30T13:40:17.394Z,17
2023-09-30T13:41:57.854Z,17
2023-09-30T13:43:38.435Z,17
2023-09-30T13:45:18.967Z,17
2023-09-30T13:47:01.857Z,17
2023-09-30T13:48:42.594Z,17
2023-09-30T13:50:23.265Z,17
2023-09-30T13:52:03.833Z,17
2023-09-30T13:53:44.515Z,17
2023-09-30T13:55:24.978Z,17
2023-09-30T13:57:05.452Z,17
2023-09-30T13:58:45.996Z,17
2023-09-30T14:00:26.460Z,17
2023-09-30T14:03:24.718Z,17
2023-09-30T14:05:05.543Z,17
2023-09-30T14:06:46.240Z,17
2023-09-30T14:08:26.757Z,17
2023-09-30T14:10:07.284Z,17
2023-09-30T14:11:47.787Z,17
2023-09-30T14:13:28.216Z,17
2023-09-30T14:15:08.676Z,17
2023-09-30T14:16:49.283Z,17
2023-09-30T14:18:29.797Z,17
2023-09-30T14:20:10.259Z,17
2023-09-30T14:21:50.884Z,17
2023-09-30T14:23:31.462Z,17
2023-09-30T14:25:11.943Z,17
2023-09-30T14:26:52.582Z,17
2023-09-30T14:28:33.050Z,16.8
2023-09-30T14:30:13.523Z,16.9
2023-09-30T14:31:53.981Z,16.9
2023-09-30T14:33:34.515Z,17
2023-09-30T14:35:14.963Z,16.9
2023-09-30T14:36:55.485Z,17
2023-09-30T14:38:36.070Z,17
2023-09-30T14:40:16.540Z,17
2023-09-30T14:41:56.989Z,17
2023-09-30T14:43:37.478Z,17
2023-09-30T14:45:17.944Z,17
2023-09-30T14:46:58.661Z,17
2023-09-30T14:48:39.279Z,17
2023-09-30T14:50:19.879Z,17
2023-09-30T14:52:00.617Z,17
2023-09-30T14:53:41.322Z,17
2023-09-30T14:55:21.761Z,17
2023-09-30T14:57:02.218Z,17
2023-09-30T14:58:42.712Z,17
2023-09-30T15:00:23.384Z,17
2023-09-30T15:02:03.970Z,17
2023-09-30T15:03:44.671Z,17
2023-09-30T15:05:25.409Z,17
2023-09-30T15:07:06.048Z,17
2023-09-30T15:08:46.829Z,17
2023-09-30T15:10:27.423Z,17
2023-09-30T15:12:07.856Z,17
2023-09-30T15:13:48.302Z,17
2023-09-30T15:15:28.770Z,17
2023-09-30T15:17:09.397Z,17
2023-09-30T15:18:49.825Z,17
2023-09-30T15:20:30.365Z,17
2023-09-30T15:22:12.728Z,17
2023-09-30T15:23:55.355Z,17
2023-09-30T15:25:35.911Z,17
2023-09-30T15:27:16.358Z,17
2023-09-30T15:28:56.944Z,17
2023-09-30T15:30:38.233Z,17
2023-09-30T15:32:18.847Z,17
2023-09-30T15:33:59.556Z,17
2023-09-30T15:35:40.888Z,17
2023-09-30T15:37:21.477Z,17
2023-09-30T15:39:01.918Z,17
2023-09-30T15:40:42.359Z,17
2023-09-30T15:42:22.808Z,17
2023-09-30T15:44:03.693Z,17
2023-09-30T15:45:45.092Z,17
2023-09-30T15:47:25.730Z,17
2023-09-30T15:49:06.317Z,17
2023-09-30T15:50:46.926Z,17
2023-09-30T15:52:27.421Z,17
2023-09-30T15:54:24.914Z,16.9
2023-09-30T15:56:05.368Z,16.9
2023-09-30T15:57:45.846Z,16.9
2023-09-30T15:59:26.398Z,17
2023-09-30T16:01:06.868Z,16.9
2023-09-30T16:02:47.564Z,17
2023-09-30T16:04:28.191Z,17
2023-09-30T16:06:08.918Z,16.9
2023-09-30T16:07:49.565Z,16.9
2023-09-30T16:09:30.034Z,16.9
2023-09-30T16:11:10.592Z,16.9
2023-09-30T16:12:51.076Z,16.9
2023-09-30T16:14:31.619Z,16.9
2023-09-30T16:16:12.146Z,16.9
2023-09-30T16:17:53.668Z,16.9
2023-09-30T16:19:34.346Z,16.9
2023-09-30T16:21:14.868Z,16.9
2023-09-30T16:22:55.545Z,16.9
2023-09-30T16:24:35.985Z,16.9
2023-09-30T16:26:16.538Z,16.9
2023-09-30T16:27:59.895Z,16.9
2023-09-30T16:29:41.337Z,16.9
2023-09-30T16:31:21.878Z,16.9
2023-09-30T16:33:02.819Z,16.9
2023-09-30T16:34:43.437Z,16.9
2023-09-30T16:36:23.888Z,16.9
2023-09-30T16:38:04.458Z,16.9
2023-09-30T16:39:44.927Z,16.9
2023-09-30T16:41:25.564Z,16.9
2023-09-30T16:43:06.239Z,16.9
2023-09-30T16:44:46.884Z,16.9
2023-09-30T16:46:27.515Z,16.9
2023-09-30T16:48:08.117Z,16.9
2023-09-30T16:49:48.937Z,16.9
2023-09-30T16:51:29.314Z,16.9
2023-09-30T16:53:10.614Z,16.9
2023-09-30T16:54:51.111Z,16.9
2023-09-30T16:56:31.656Z,16.9
2023-09-30T16:58:12.267Z,16.9
2023-09-30T16:59:53.358Z,16.9
2023-09-30T17:01:34.568Z,16.9
2023-09-30T17:03:15.494Z,16.9
2023-09-30T17:04:56.352Z,16.9
2023-09-30T17:06:37.143Z,16.9
2023-09-30T17:08:17.797Z,16.9
2023-09-30T17:09:58.344Z,16.9
2023-09-30T17:11:38.997Z,16.9
2023-09-30T17:13:19.532Z,16.9
2023-09-30T17:15:00.031Z,16.9
2023-09-30T17:16:40.658Z,16.9
2023-09-30T17:18:21.227Z,16.9
2023-09-30T17:20:01.771Z,16.9
2023-09-30T17:21:42.296Z,16.9
2023-09-30T17:23:23.023Z,16.9
2023-09-30T17:25:03.497Z,16.9
2023-09-30T17:26:44.318Z,16.9
2023-09-30T17:28:24.768Z,16.9
2023-09-30T17:30:05.230Z,16.9
2023-09-30T17:31:45.781Z,16.9
2023-09-30T17:33:26.650Z,16.9
2023-09-30T17:35:07.103Z,17
2023-09-30T17:36:47.574Z,16.9
2023-09-30T17:38:28.248Z,16.9
2023-09-30T17:40:08.701Z,17
2023-09-30T17:43:46.683Z,16.9
2023-09-30T17:45:27.318Z,16.9
2023-09-30T17:47:08.172Z,16.9
2023-09-30T17:48:52.511Z,16.9
2023-09-30T17:50:33.043Z,16.8
2023-09-30T17:52:13.598Z,16.1
2023-09-30T17:53:54.314Z,16
2023-09-30T17:55:35.097Z,15.9
2023-09-30T17:57:15.554Z,16
2023-09-30T17:58:56.036Z,16
2023-09-30T18:00:36.788Z,16
2023-09-30T18:02:17.630Z,16.1
2023-09-30T18:03:58.458Z,16.4
2023-09-30T18:05:39.909Z,16.6
2023-09-30T18:07:20.672Z,16.7
2023-09-30T18:09:01.337Z,16.7
2023-09-30T18:10:41.861Z,16.8
2023-09-30T18:12:22.424Z,16.8
2023-09-30T18:14:02.887Z,16.8
2023-09-30T18:15:43.451Z,16.8
2023-09-30T18:17:23.984Z,16.8
2023-09-30T18:19:04.490Z,16.8
2023-09-30T18:20:45.210Z,16.9
2023-09-30T18:22:25.721Z,16.9
2023-09-30T18:24:06.246Z,16.9
2023-09-30T18:25:48.356Z,16.9
2023-09-30T18:27:29.940Z,17
2023-09-30T18:29:10.557Z,16.9
2023-09-30T18:30:51.097Z,16.9
2023-09-30T18:32:31.637Z,16.9
2023-09-30T18:34:12.157Z,16.9
2023-09-30T18:35:52.819Z,16.9
2023-09-30T18:37:33.317Z,16.9
2023-09-30T18:39:25.398Z,16.9
2023-09-30T18:41:06.815Z,16.9
2023-09-30T18:42:47.340Z,16.9
2023-09-30T18:44:28.074Z,16.9
2023-09-30T18:46:08.634Z,17
2023-09-30T18:47:49.417Z,16.9
2023-09-30T18:49:29.952Z,16.9
2023-09-30T18:51:10.427Z,16.9
2023-09-30T18:52:50.870Z,16.9
2023-09-30T18:54:31.362Z,16.9
2023-09-30T18:56:12.191Z,16.9
2023-09-30T18:57:52.794Z,16.9
2023-09-30T18:59:33.466Z,16.9
2023-09-30T19:01:14.014Z,16.9
2023-09-30T19:02:54.752Z,16.9
2023-09-30T19:04:35.473Z,16.9
2023-09-30T19:06:20.151Z,16.9
2023-09-30T19:08:00.611Z,16.9
2023-09-30T19:09:41.223Z,16.9
2023-09-30T19:11:21.827Z,16.9
2023-09-30T19:13:02.462Z,16.9
2023-09-30T19:14:42.945Z,16.9
2023-09-30T19:16:23.407Z,17
2023-09-30T19:18:04.214Z,16.9
2023-09-30T19:19:44.820Z,16.9
2023-09-30T19:21:25.268Z,16.9
2023-09-30T19:23:05.734Z,16.9
2023-09-30T19:24:46.204Z,16.9
2023-09-30T19:26:26.739Z,16.9
2023-09-30T19:28:07.239Z,16.9
2023-09-30T19:29:47.963Z,16.9
2023-09-30T19:33:25.880Z,16.9
2023-09-30T19:35:06.330Z,16.9
2023-09-30T19:36:46.838Z,16.9
2023-09-30T19:38:27.448Z,16.9
2023-09-30T19:40:08.029Z,16.9
2023-09-30T19:41:48.664Z,16.9
2023-09-30T19:43:29.115Z,16.9
2023-09-30T19:45:09.574Z,16.9
2023-09-30T19:46:50.126Z,16.9
2023-09-30T19:48:31.126Z,16.9
2023-09-30T19:50:11.655Z,16.9
2023-09-30T19:51:52.169Z,16.9
2023-09-30T19:53:32.774Z,16.9
2023-09-30T19:55:13.478Z,16.9
2023-09-30T19:56:53.995Z,16.8
2023-09-30T19:58:34.581Z,16.9
2023-09-30T20:00:15.620Z,16.8
2023-09-30T20:01:56.043Z,16.8
2023-09-30T20:03:36.745Z,16.9
2023-09-30T20:05:18.177Z,16.9
2023-09-30T20:06:58.698Z,16.8
2023-09-30T20:08:39.339Z,16.9
2023-09-30T20:10:19.936Z,16.8
2023-09-30T20:12:00.450Z,16.8
2023-09-30T20:13:40.918Z,16.8
2023-09-30T20:15:21.453Z,16.8
2023-09-30T20:17:02.149Z,16.7
2023-09-30T20:18:43.080Z,16.7
2023-09-30T20:20:23.674Z,16.7
2023-09-30T20:22:04.257Z,16.6
2023-09-30T20:23:45.079Z,16.6
2023-09-30T20:25:25.768Z,16.6
2023-09-30T20:27:06.372Z,16.7
2023-09-30T20:28:46.843Z,16.8
2023-09-30T20:30:27.326Z,16.8
2023-09-30T20:32:07.880Z,16.8
2023-09-30T20:33:48.542Z,16.8
2023-09-30T20:35:29.371Z,16.8
2023-09-30T20:37:09.940Z,16.8
2023-09-30T20:38:50.592Z,16.8
2023-09-30T20:40:31.093Z,17
2023-09-30T20:42:11.611Z,17
2023-09-30T20:43:52.193Z,17
2023-09-30T20:45:32.722Z,16.9
2023-09-30T20:47:13.333Z,16.9
2023-09-30T20:48:56.132Z,16.8
2023-09-30T20:50:37.379Z,16.8
2023-09-30T20:52:17.999Z,16.8
2023-09-30T20:53:58.582Z,16.8
2023-09-30T20:55:39.084Z,16.8
2023-09-30T20:57:19.612Z,16.8
2023-09-30T20:59:00.230Z,16.8
2023-09-30T21:00:41.120Z,16.9
2023-09-30T21:03:16.582Z,16.8
2023-09-30T21:04:57.378Z,16.8
2023-09-30T21:06:37.925Z,16.8
2023-09-30T21:08:18.602Z,16.8
2023-09-30T21:09:59.083Z,16.8
2023-09-30T21:11:39.812Z,16.8
2023-09-30T21:13:21.380Z,16.8
2023-09-30T21:15:02.783Z,16.8
2023-09-30T21:16:43.483Z,16.8
2023-09-30T21:18:24.066Z,16.8
2023-09-30T21:20:04.544Z,16.8
2023-09-30T21:21:45.012Z,16.8
2023-09-30T21:23:25.513Z,16.8
2023-09-30T21:25:06.150Z,16.7
2023-09-30T21:26:47.492Z,16.7
2023-09-30T21:28:29.968Z,16.6
2023-09-30T21:30:10.586Z,16.6
2023-09-30T21:31:51.239Z,16.6
2023-09-30T21:33:32.161Z,16.6
2023-09-30T21:35:12.638Z,16.6
2023-09-30T21:36:53.115Z,16.6
2023-09-30T21:38:35.105Z,16.6
2023-09-30T21:40:16.580Z,16.6
2023-09-30T21:41:57.172Z,16.6
2023-09-30T21:43:37.604Z,16.5
2023-09-30T21:45:18.042Z,16.5
2023-09-30T21:46:58.562Z,16.5
2023-09-30T21:48:39.058Z,16.5
2023-09-30T21:50:19.712Z,16.5
2023-09-30T21:52:00.294Z,16.6
2023-09-30T21:53:40.935Z,16.6
2023-09-30T21:55:21.395Z,16.6
2023-09-30T21:57:02.077Z,16.6
2023-09-30T21:58:42.503Z,16.5
2023-09-30T22:00:22.980Z,16.5
2023-09-30T22:02:03.484Z,16.6
2023-09-30T22:03:44.382Z,16.5
2023-09-30T22:05:25.263Z,16.6
2023-09-30T22:07:05.743Z,16.6
2023-09-30T22:08:46.277Z,16.6
2023-09-30T22:10:29.394Z,16.6
2023-09-30T22:12:10.377Z,16.6
2023-09-30T22:13:50.831Z,16.6
2023-09-30T22:15:31.278Z,16.6
2023-09-30T22:17:12.074Z,16.6
2023-09-30T22:18:52.853Z,16.6
2023-09-30T22:20:33.423Z,16.6
2023-09-30T22:22:13.918Z,16.6
2023-09-30T22:23:54.356Z,16.6
2023-09-30T22:25:34.822Z,16.6
2023-09-30T22:27:15.394Z,16.6
2023-09-30T22:28:55.836Z,16.6
2023-09-30T22:30:36.928Z,16.6
2023-09-30T22:32:17.529Z,16.5
2023-09-30T22:33:58.260Z,16.6
2023-09-30T22:35:38.772Z,16.6
2023-09-30T22:37:19.266Z,16.6
2023-09-30T22:38:59.924Z,16.6
2023-09-30T22:40:40.646Z,16.6
2023-09-30T22:42:21.122Z,16.6
2023-09-30T22:44:01.573Z,16.5
2023-09-30T22:45:42.076Z,16.5
2023-09-30T22:47:22.872Z,16.5
2023-09-30T22:49:03.461Z,16.6
2023-09-30T22:50:43.911Z,16.6
2023-09-30T22:54:22.074Z,16.6
2023-09-30T22:56:02.629Z,16.6
2023-09-30T22:57:43.219Z,16.6
2023-09-30T22:59:23.862Z,16.5
2023-09-30T23:01:04.343Z,16.5
2023-09-30T23:02:45.116Z,16.5
2023-09-30T23:04:25.947Z,16.5
2023-09-30T23:06:06.500Z,16.5
2023-09-30T23:07:46.949Z,16.5
2023-09-30T23:09:27.402Z,16.5
2023-09-30T23:11:07.868Z,16.5
2023-09-30T23:12:48.581Z,16.5
2023-09-30T23:14:29.081Z,16.5
2023-09-30T23:16:09.600Z,16.5
2023-09-30T23:17:50.461Z,16.6
2023-09-30T23:19:31.598Z,16.6
2023-09-30T23:21:12.153Z,16.6
2023-09-30T23:22:53.004Z,16.6
2023-09-30T23:24:33.961Z,16.6
2023-09-30T23:26:14.432Z,16.6
2023-09-30T23:27:54.971Z,16.6
2023-09-30T23:29:35.843Z,16.5